createdAt,value
2022-12-29T00:01:02.814Z,2.23
2022-12-29T00:04:11.455Z,2.10
2022-12-29T00:07:19.003Z,2.10
2022-12-29T00:10:22.151Z,2.23
2022-12-29T00:13:42.930Z,2.10
2022-12-29T00:16:47.111Z,2.23
2022-12-29T00:20:07.531Z,2.27
2022-12-29T00:23:29.892Z,2.30
2022-12-29T00:26:50.323Z,2.30
2022-12-29T00:30:11.364Z,2.27
2022-12-29T00:33:33.815Z,2.20
2022-12-29T00:36:39.929Z,2.50
2022-12-29T00:40:01.911Z,2.10
2022-12-29T00:43:22.860Z,2.20
2022-12-29T00:46:25.858Z,2.17
2022-12-29T00:49:34.651Z,2.30
2022-12-29T00:52:37.741Z,2.70
2022-12-29T00:55:42.100Z,2.43
2022-12-29T00:58:45.080Z,2.60
2022-12-29T01:01:49.303Z,2.40
2022-12-29T01:04:52.355Z,2.17
2022-12-29T01:07:55.320Z,2.27
2022-12-29T01:11:02.989Z,2.33
2022-12-29T01:14:06.427Z,2.40
2022-12-29T01:17:10.267Z,2.10
2022-12-29T01:20:14.237Z,2.20
2022-12-29T01:23:17.542Z,2.20
2022-12-29T01:26:22.302Z,2.10
2022-12-29T01:29:25.583Z,2.20
2022-12-29T01:32:28.557Z,2.30
2022-12-29T01:35:31.555Z,2.50
2022-12-29T01:38:34.669Z,2.60
2022-12-29T01:41:38.977Z,2.37
2022-12-29T01:44:54.237Z,2.33
2022-12-29T01:48:01.152Z,2.60
2022-12-29T01:51:04.393Z,2.30
2022-12-29T01:54:12.018Z,2.90
2022-12-29T01:57:22.092Z,2.77
2022-12-29T02:00:25.125Z,2.90
2022-12-29T02:03:29.768Z,2.83
2022-12-29T02:06:38.848Z,2.80
2022-12-29T02:09:43.122Z,2.63
2022-12-29T02:12:48.591Z,3.23
2022-12-29T02:16:02.613Z,3.07
2022-12-29T02:19:38.268Z,2.87
2022-12-29T02:22:54.425Z,2.70
2022-12-29T02:26:17.482Z,2.73
2022-12-29T02:29:58.852Z,2.60
2022-12-29T02:33:11.267Z,2.70
2022-12-29T02:36:21.623Z,2.60
2022-12-29T02:39:30.425Z,2.60
2022-12-29T02:42:41.595Z,2.87
2022-12-29T02:45:52.960Z,2.70
2022-12-29T02:49:03.529Z,2.07
2022-12-29T02:52:11.964Z,2.40
2022-12-29T02:55:13.985Z,1.90
2022-12-29T02:58:20.764Z,2.53
2022-12-29T03:01:32.054Z,2.30
2022-12-29T03:04:46.113Z,2.03
2022-12-29T03:07:58.958Z,2.20
2022-12-29T03:11:05.321Z,2.20
2022-12-29T03:14:34.303Z,2.30
2022-12-29T03:17:47.466Z,1.93
2022-12-29T03:20:56.302Z,2.30
2022-12-29T03:23:59.493Z,2.27
2022-12-29T03:27:05.860Z,2.30
2022-12-29T03:30:10.016Z,2.17
2022-12-29T03:33:16.788Z,2.27
2022-12-29T03:36:29.345Z,1.83
2022-12-29T03:39:33.007Z,2.17
2022-12-29T03:42:38.803Z,2.20
2022-12-29T03:45:42.344Z,1.80
2022-12-29T03:48:45.329Z,1.90
2022-12-29T03:51:51.833Z,2.10
2022-12-29T03:54:55.089Z,1.67
2022-12-29T03:57:58.070Z,1.83
2022-12-29T04:01:01.327Z,1.47
2022-12-29T04:04:04.503Z,1.70
2022-12-29T04:07:08.895Z,1.40
2022-12-29T04:10:11.925Z,1.67
2022-12-29T04:13:14.886Z,1.77
2022-12-29T04:16:18.040Z,1.40
2022-12-29T04:19:21.347Z,1.70
2022-12-29T04:22:25.705Z,1.80
2022-12-29T04:25:29.072Z,1.30
2022-12-29T04:28:32.704Z,1.40
2022-12-29T04:31:35.883Z,1.20
2022-12-29T04:34:38.909Z,1.13
2022-12-29T04:37:43.238Z,1.30
2022-12-29T04:40:46.707Z,1.30
2022-12-29T04:43:49.698Z,1.00
2022-12-29T04:46:52.748Z,1.00
2022-12-29T04:49:55.810Z,1.30
2022-12-29T04:53:00.143Z,1.00
2022-12-29T04:56:03.162Z,1.10
2022-12-29T04:59:06.359Z,1.10
2022-12-29T05:02:09.498Z,1.00
2022-12-29T05:05:12.789Z,1.20
2022-12-29T05:08:17.255Z,0.90
2022-12-29T05:11:20.320Z,0.77
2022-12-29T05:14:23.945Z,0.90
2022-12-29T05:17:27.062Z,0.90
2022-12-29T05:20:30.056Z,1.00
2022-12-29T05:23:34.385Z,1.00
2022-12-29T05:26:37.646Z,0.80
2022-12-29T05:29:40.631Z,1.20
2022-12-29T05:32:43.598Z,1.30
2022-12-29T05:35:46.722Z,1.30
2022-12-29T05:38:51.049Z,1.30
2022-12-29T05:41:54.042Z,1.70
2022-12-29T05:44:57.010Z,1.30
2022-12-29T05:47:59.991Z,1.10
2022-12-29T05:51:02.988Z,1.10
2022-12-29T05:54:07.439Z,1.10
2022-12-29T05:57:10.849Z,1.30
2022-12-29T06:00:15.099Z,1.13
2022-12-29T06:03:18.292Z,1.30
2022-12-29T06:06:21.660Z,0.93
2022-12-29T06:09:26.044Z,1.00
2022-12-29T06:12:29.118Z,1.07
2022-12-29T06:15:32.099Z,1.00
2022-12-29T06:18:35.075Z,1.00
2022-12-29T06:21:38.624Z,0.83
2022-12-29T06:24:43.026Z,1.00
2022-12-29T06:27:46.205Z,0.90
2022-12-29T06:30:49.849Z,0.87
2022-12-29T06:33:52.850Z,0.90
2022-12-29T06:36:55.952Z,0.90
2022-12-29T06:40:00.494Z,0.90
2022-12-29T06:43:03.482Z,1.20
2022-12-29T06:46:06.588Z,0.80
2022-12-29T06:49:09.833Z,0.87
2022-12-29T06:52:14.048Z,1.00
2022-12-29T06:55:18.622Z,0.80
2022-12-29T06:58:21.608Z,0.93
2022-12-29T07:01:24.740Z,0.80
2022-12-29T07:04:27.855Z,0.90
2022-12-29T07:07:30.864Z,0.90
2022-12-29T07:10:35.168Z,0.93
2022-12-29T07:13:38.247Z,1.00
2022-12-29T07:16:41.342Z,1.03
2022-12-29T07:19:45.169Z,0.70
2022-12-29T07:22:49.051Z,0.90
2022-12-29T07:26:01.274Z,1.00
2022-12-29T07:29:04.322Z,0.90
2022-12-29T07:32:07.405Z,0.90
2022-12-29T07:35:10.682Z,0.87
2022-12-29T07:38:13.830Z,1.10
2022-12-29T07:41:19.111Z,0.80
2022-12-29T07:44:22.093Z,0.90
2022-12-29T07:47:25.110Z,1.27
2022-12-29T07:50:28.125Z,1.00
2022-12-29T07:53:31.151Z,1.20
2022-12-29T07:56:35.512Z,0.90
2022-12-29T07:59:38.547Z,1.27
2022-12-29T08:02:41.624Z,0.83
2022-12-29T08:05:44.648Z,0.80
2022-12-29T08:08:47.920Z,1.07
2022-12-29T08:11:52.337Z,0.77
2022-12-29T08:14:55.313Z,0.80
2022-12-29T08:17:58.364Z,0.83
2022-12-29T08:21:04.173Z,0.70
2022-12-29T08:24:08.040Z,0.60
2022-12-29T08:27:20.025Z,0.80
2022-12-29T08:30:24.375Z,0.90
2022-12-29T08:33:27.943Z,0.83
2022-12-29T08:36:31.625Z,1.20
2022-12-29T08:39:34.801Z,1.50
2022-12-29T08:42:39.136Z,0.90
2022-12-29T08:45:42.192Z,0.80
2022-12-29T08:48:45.664Z,1.00
2022-12-29T08:51:48.642Z,1.00
2022-12-29T08:54:51.776Z,0.90
2022-12-29T08:57:56.087Z,0.90
2022-12-29T09:00:59.582Z,0.90
2022-12-29T09:04:18.598Z,0.70
2022-12-29T09:07:21.947Z,0.73
2022-12-29T09:10:24.989Z,0.90
2022-12-29T09:13:29.419Z,0.67
2022-12-29T09:16:32.585Z,0.70
2022-12-29T09:19:35.597Z,0.60
2022-12-29T09:22:39.054Z,0.90
2022-12-29T09:25:44.422Z,0.77
2022-12-29T09:28:49.033Z,0.60
2022-12-29T09:31:52.121Z,0.70
2022-12-29T09:34:55.131Z,0.70
2022-12-29T09:37:58.142Z,0.60
2022-12-29T09:41:07.363Z,0.90
2022-12-29T09:44:18.323Z,0.53
2022-12-29T09:47:23.064Z,0.70
2022-12-29T09:50:31.369Z,0.67
2022-12-29T09:53:38.702Z,0.83
2022-12-29T09:56:41.802Z,0.77
2022-12-29T09:59:48.665Z,0.80
2022-12-29T10:02:56.652Z,0.83
2022-12-29T10:06:08.818Z,0.60
2022-12-29T10:09:19.574Z,0.80
2022-12-29T10:12:29.240Z,0.80
2022-12-29T10:15:47.209Z,0.70
2022-12-29T10:19:16.274Z,0.80
2022-12-29T10:22:31.821Z,0.77
2022-12-29T10:25:39.819Z,0.90
2022-12-29T10:28:48.322Z,0.57
2022-12-29T10:31:58.829Z,0.87
2022-12-29T10:35:09.134Z,1.40
2022-12-29T10:38:21.167Z,0.83
2022-12-29T10:41:27.950Z,0.53
2022-12-29T10:44:35.591Z,0.70
2022-12-29T10:47:49.384Z,0.90
2022-12-29T10:51:00.043Z,0.80
2022-12-29T10:54:07.750Z,0.73
2022-12-29T10:57:15.546Z,1.10
2022-12-29T11:00:21.911Z,0.90
2022-12-29T11:03:52.273Z,0.80
2022-12-29T11:06:55.573Z,0.80
2022-12-29T11:10:18.797Z,0.80
2022-12-29T11:13:32.145Z,0.70
2022-12-29T11:16:37.957Z,0.80
2022-12-29T11:19:42.341Z,0.70
2022-12-29T11:22:46.918Z,0.97
2022-12-29T11:26:08.724Z,0.97
2022-12-29T11:29:26.629Z,0.87
2022-12-29T11:32:31.249Z,0.70
2022-12-29T11:35:38.563Z,0.90
2022-12-29T11:38:44.227Z,0.90
2022-12-29T11:41:54.204Z,0.90
2022-12-29T11:44:57.488Z,0.50
2022-12-29T11:48:08.363Z,0.50
2022-12-29T11:51:13.985Z,0.53
2022-12-29T11:54:24.037Z,0.80
2022-12-29T11:57:27.747Z,0.60
2022-12-29T12:00:34.055Z,0.60
2022-12-29T12:03:40.622Z,0.73
2022-12-29T12:06:47.964Z,0.60
2022-12-29T12:10:00.200Z,0.63
2022-12-29T12:13:16.242Z,0.53
2022-12-29T12:16:23.317Z,0.73
2022-12-29T12:19:34.673Z,0.40
2022-12-29T12:22:41.948Z,0.80
2022-12-29T12:25:53.822Z,0.50
2022-12-29T12:29:02.508Z,0.80
2022-12-29T12:32:14.897Z,0.90
2022-12-29T12:35:26.044Z,1.00
2022-12-29T12:38:37.298Z,1.10
2022-12-29T12:41:51.186Z,0.70
2022-12-29T12:45:01.355Z,0.80
2022-12-29T12:48:19.096Z,0.93
2022-12-29T12:51:27.802Z,0.80
2022-12-29T12:54:42.423Z,1.07
2022-12-29T12:57:56.215Z,0.90
2022-12-29T13:01:17.475Z,0.83
2022-12-29T13:04:39.778Z,0.80
2022-12-29T13:07:51.131Z,1.20
2022-12-29T13:11:03.355Z,1.20
2022-12-29T13:14:22.026Z,1.20
2022-12-29T13:17:30.024Z,1.10
2022-12-29T13:20:38.704Z,1.03
2022-12-29T13:23:47.788Z,1.00
2022-12-29T13:26:55.871Z,1.00
2022-12-29T13:30:04.312Z,0.80
2022-12-29T13:33:21.827Z,0.70
2022-12-29T13:36:29.207Z,0.80
2022-12-29T13:39:36.359Z,0.80
2022-12-29T13:42:41.627Z,1.20
2022-12-29T13:45:47.019Z,0.77
2022-12-29T13:48:54.220Z,1.00
2022-12-29T13:52:00.750Z,0.80
2022-12-29T13:55:21.463Z,0.97
2022-12-29T13:58:33.968Z,1.07
2022-12-29T14:01:42.487Z,0.70
2022-12-29T14:04:59.600Z,1.50
2022-12-29T14:08:04.983Z,1.13
2022-12-29T14:11:11.722Z,0.80
2022-12-29T14:14:23.141Z,0.60
2022-12-29T14:17:26.141Z,0.70
2022-12-29T14:20:29.248Z,0.57
2022-12-29T14:23:43.335Z,0.80
2022-12-29T14:26:46.409Z,0.70
2022-12-29T14:29:52.581Z,0.60
2022-12-29T14:33:03.932Z,0.80
2022-12-29T14:36:25.165Z,0.77
2022-12-29T14:39:38.375Z,0.90
2022-12-29T14:42:42.849Z,0.43
2022-12-29T14:45:55.360Z,0.63
2022-12-29T14:49:02.018Z,0.67
2022-12-29T14:52:15.807Z,0.80
2022-12-29T14:55:38.398Z,0.80
2022-12-29T14:58:48.752Z,1.47
2022-12-29T15:01:55.940Z,0.63
2022-12-29T15:05:02.503Z,0.90
2022-12-29T15:08:07.126Z,0.60
2022-12-29T15:11:16.008Z,0.90
2022-12-29T15:14:34.399Z,0.93
2022-12-29T15:17:39.580Z,0.70
2022-12-29T15:20:44.451Z,0.67
2022-12-29T15:23:48.917Z,1.00
2022-12-29T15:26:54.661Z,1.07
2022-12-29T15:29:59.774Z,0.80
2022-12-29T15:33:04.118Z,0.70
2022-12-29T15:36:13.695Z,1.00
2022-12-29T15:39:20.927Z,0.90
2022-12-29T15:42:37.126Z,0.70
2022-12-29T15:45:40.485Z,1.00
2022-12-29T15:48:45.170Z,1.30
2022-12-29T15:51:48.331Z,1.10
2022-12-29T15:54:54.135Z,1.30
2022-12-29T15:57:59.390Z,0.90
2022-12-29T16:01:03.557Z,1.10
2022-12-29T16:04:09.354Z,0.90
2022-12-29T16:07:26.852Z,1.10
2022-12-29T16:10:35.427Z,1.13
2022-12-29T16:13:42.969Z,1.30
2022-12-29T16:16:48.422Z,1.17
2022-12-29T16:19:56.698Z,1.30
2022-12-29T16:23:01.599Z,1.53
2022-12-29T16:26:08.745Z,1.50
2022-12-29T16:29:15.635Z,1.63
2022-12-29T16:32:27.422Z,0.93
2022-12-29T16:35:41.011Z,1.37
2022-12-29T16:38:43.964Z,1.63
2022-12-29T16:41:47.052Z,1.63
2022-12-29T16:44:50.056Z,1.47
2022-12-29T16:48:18.431Z,1.13
2022-12-29T16:51:31.357Z,1.80
2022-12-29T16:54:37.269Z,2.17
2022-12-29T16:57:40.309Z,1.73
2022-12-29T17:00:46.796Z,1.83
2022-12-29T17:03:54.899Z,1.53
2022-12-29T17:06:59.368Z,1.80
2022-12-29T17:10:02.342Z,1.57
2022-12-29T17:13:05.338Z,1.93
2022-12-29T17:16:11.072Z,1.63
2022-12-29T17:19:18.596Z,2.07
2022-12-29T17:22:28.229Z,1.60
2022-12-29T17:25:35.888Z,1.30
2022-12-29T17:28:38.908Z,1.70
2022-12-29T17:31:41.957Z,1.43
2022-12-29T17:34:45.008Z,1.50
2022-12-29T17:37:50.302Z,2.17
2022-12-29T17:40:53.462Z,1.73
2022-12-29T17:43:56.516Z,2.20
2022-12-29T17:46:59.505Z,1.67
2022-12-29T17:50:02.669Z,1.97
2022-12-29T17:53:11.809Z,2.07
2022-12-29T17:56:14.787Z,1.70
2022-12-29T17:59:18.728Z,1.90
2022-12-29T18:02:27.324Z,1.77
2022-12-29T18:05:32.017Z,1.50
2022-12-29T18:08:38.577Z,1.90
2022-12-29T18:11:42.976Z,1.80
2022-12-29T18:14:45.932Z,2.10
2022-12-29T18:17:49.003Z,1.53
2022-12-29T18:20:54.274Z,1.53
2022-12-29T18:23:58.568Z,1.70
2022-12-29T18:27:01.643Z,1.80
2022-12-29T18:30:05.271Z,2.10
2022-12-29T18:33:10.474Z,1.93
2022-12-29T18:36:14.395Z,2.50
2022-12-29T18:39:18.717Z,2.30
2022-12-29T18:42:22.326Z,1.80
2022-12-29T18:45:26.714Z,2.33
2022-12-29T18:48:29.684Z,2.53
2022-12-29T18:51:32.882Z,2.27
2022-12-29T18:54:37.187Z,2.20
2022-12-29T18:57:40.180Z,2.00
2022-12-29T19:00:44.058Z,2.07
2022-12-29T19:03:47.105Z,2.40
2022-12-29T19:06:50.181Z,2.40
2022-12-29T19:09:54.526Z,2.07
2022-12-29T19:12:57.511Z,2.47
2022-12-29T19:16:00.740Z,2.83
2022-12-29T19:19:09.241Z,2.30
2022-12-29T19:22:12.884Z,3.13
2022-12-29T19:25:17.229Z,2.67
2022-12-29T19:28:21.780Z,2.20
2022-12-29T19:31:25.058Z,2.63
2022-12-29T19:34:28.186Z,2.37
2022-12-29T19:37:31.179Z,2.53
2022-12-29T19:40:35.849Z,1.90
2022-12-29T19:43:38.837Z,1.90
2022-12-29T19:46:41.901Z,2.17
2022-12-29T19:49:44.873Z,2.40
2022-12-29T19:52:47.898Z,2.00
2022-12-29T19:55:52.180Z,1.97
2022-12-29T19:58:57.363Z,2.23
2022-12-29T20:02:00.436Z,1.70
2022-12-29T20:05:03.473Z,2.00
2022-12-29T20:08:07.615Z,1.80
2022-12-29T20:11:14.483Z,2.17
2022-12-29T20:14:17.790Z,1.10
2022-12-29T20:17:32.686Z,1.63
2022-12-29T20:20:44.150Z,1.30
2022-12-29T20:23:48.193Z,1.20
2022-12-29T20:26:54.568Z,1.40
2022-12-29T20:29:57.621Z,1.17
2022-12-29T20:33:07.633Z,1.00
2022-12-29T20:36:15.110Z,1.10
2022-12-29T20:39:20.315Z,0.70
2022-12-29T20:42:24.640Z,0.83
2022-12-29T20:45:27.709Z,1.10
2022-12-29T20:48:31.431Z,0.73
2022-12-29T20:52:03.896Z,0.97
2022-12-29T20:54:57.586Z,1.13
2022-12-29T21:01:26.642Z,0.60
2022-12-29T21:04:50.225Z,0.60
2022-12-29T21:07:52.844Z,0.77
2022-12-29T21:10:55.857Z,0.57
2022-12-29T21:14:01.375Z,0.97
2022-12-29T21:17:04.565Z,0.63
2022-12-29T21:20:08.550Z,1.13
2022-12-29T21:23:12.985Z,1.67
2022-12-29T21:26:18.386Z,0.90
2022-12-29T21:29:22.925Z,0.70
2022-12-29T21:32:25.933Z,0.80
2022-12-29T21:35:29.154Z,0.60
2022-12-29T21:38:32.757Z,0.73
2022-12-29T21:41:35.953Z,1.07
2022-12-29T21:44:57.889Z,1.20
2022-12-29T21:48:20.777Z,0.97
2022-12-29T21:51:41.256Z,0.70
2022-12-29T21:55:02.256Z,0.83
2022-12-29T21:58:22.967Z,0.67
2022-12-29T22:01:46.577Z,1.23
2022-12-29T22:05:08.025Z,1.63
2022-12-29T22:08:28.462Z,1.27
2022-12-29T22:11:48.853Z,1.13
2022-12-29T22:14:51.813Z,1.43
2022-12-29T22:17:56.946Z,1.20
2022-12-29T22:20:59.961Z,1.00
2022-12-29T22:24:02.942Z,1.07
2022-12-29T22:27:05.920Z,1.00
2022-12-29T22:30:09.774Z,1.20
2022-12-29T22:33:14.159Z,0.83
2022-12-29T22:36:17.136Z,1.47
2022-12-29T22:39:20.111Z,1.57
2022-12-29T22:42:24.363Z,0.90
2022-12-29T22:45:27.318Z,1.47
2022-12-29T22:48:32.776Z,1.13
2022-12-29T22:51:35.759Z,1.00
2022-12-29T22:54:38.809Z,1.30
2022-12-29T22:57:41.806Z,1.10
2022-12-29T23:00:44.851Z,1.40
2022-12-29T23:03:49.650Z,1.53
2022-12-29T23:06:52.702Z,1.70
2022-12-29T23:09:55.673Z,1.80
2022-12-29T23:12:58.636Z,1.50
2022-12-29T23:16:01.826Z,1.13
2022-12-29T23:19:06.738Z,1.33
2022-12-29T23:22:09.708Z,1.20
2022-12-29T23:25:12.660Z,1.40
2022-12-29T23:28:15.641Z,1.60
2022-12-29T23:31:20.607Z,1.30
2022-12-29T23:34:24.964Z,1.23
2022-12-29T23:37:27.936Z,1.50
2022-12-29T23:40:30.900Z,1.93
2022-12-29T23:43:34.050Z,1.57
2022-12-29T23:46:37.219Z,1.60
2022-12-29T23:49:41.570Z,1.60
2022-12-29T23:52:44.574Z,1.70
2022-12-29T23:55:54.067Z,1.47
2022-12-29T23:59:00.767Z,1.83
